Airfield :
LOGIN :

Register | Disclaimer

   EN    FR    IT 

 










Legend :    VFR   Marginal VFR   IFR   Intensive IFR   Very Intensive IFR
Visi :
Ceiling :
>= 8 km
>= 3000ft
5 to 8 km
1000 to 3000 ft
1500m to 5 km
500 to 1000 ft
800 to 1500m
200 to 500 ft
< 800m
< 200 ft
Symbols :   Thunderstorms  Fog  Heavy snow  Heavy precipitations  Wind > 20 kt
SIGMETs :     Misc.  Thunderstorms  Icing  Turbulence  Mountain Waves  Volcanic Ashes






- Airport Elevation : 74 ft
- IATA code : MRS


LFML - Marseille / Marignane

CURRENT METAR :
  • 200130Z AUTO 12013KT 9999 BKN025 OVC030 21/17 Q1010 BECMG 14020G30KT

EXPIRED METARs :
  • 200100Z AUTO 11013KT 9999 BKN026 BKN034 BKN045 21/17 Q1010 BECMG 14020G30KT
  • 200030Z AUTO 12014KT 9999 SCT025 BKN032 BKN041 21/17 Q1010 BECMG 14020G30KT
  • 200000Z AUTO 12012KT 9999 BKN023 BKN029 BKN035 21/17 Q1010 BECMG 14020G30KT
  • 192330Z AUTO 12011KT 9999 BKN024 BKN029 BKN043 21/17 Q1010 BECMG 14020G30KT
  • 192300Z AUTO 13014KT 9999 BKN023 BKN032 BKN047 21/17 Q1010 BECMG 14020G30KT

TAF TAF LFML
Valid from the 19 at 21:00 until the 21 at 03:00 UTC


192000Z 1921/2103 14020G30KT 9999 BKN020 TX22/2012Z TN18/2102Z
BECMG 2010/2012 CAVOK
PROB30
TEMPO 2013/2016 12020G40KT
PROB30
TEMPO 2018/2103 4000 SHRA BKN050TCU
ATIS : +33 4 42 31 15 15



MET'MAP, your aeronautical weather chart ! - Copyright ORBIFLY December 2007 - Disclaimer

ORBIFLY MET'MAP TEAM :

Programming & Development : Alexandra Zaïnal
Concept & Development : Baudouin d'Aumeries
Co-Development & Prog : Marc-Olivier Méhu
Technical & hardware support : Manuel Goepfert

Contact : metmap@orbifly.com




SOURCES & CREDITS :

   NOAA